OMRK/RKT METAR and TAF weather

Enter ICAO airport designator
Station Type Date Time Source
OMRK METAR 2020/04/05 14:00 UTC NOAA

OMRK 051400Z 33003KT CAVOK 32/10 Q1012 A2991


Station Type Date Time Source
OMRK Decoded METAR 2020/04/05 14:00 UTC NOAA

Ras Al Khaimah International Airport, United Arab Emirates (OMRK) 25-37N 055-56E 31M
Apr 05, 2020 - 10:00 AM EDT / 2020.04.05 1400 UTC
Wind: from the NNW (330 degrees) at 3 MPH (3 KT):0
Visibility: greater than 7 mile(s):0
Temperature: 89 F (32 C)
Dew Point: 50 F (10 C)
Relative Humidity: 25%
Pressure (altimeter): 29.91 in. Hg (1012 hPa)
ob: OMRK 051400Z 33003KT CAVOK 32/10 Q1012 A2991
cycle: 14

Station Type Date Time Source
OMRK TAF 2020/04/05 12:06 UTC NOAA

TAF OMRK 051100Z 0512/0618 29010KT CAVOK
BECMG 0515/0517 VRB02KT PROB30 0601/0605 4000 HZ
BECMG 0608/0610 27014KT
BECMG 0615/0617 VRB02KT

Example: see airport list